Time;durP1;ratioP1;P1;durP2;ratioP2;P2;SDS_P1;SDS_P2;PMS_P1;PMS_P2;Temp;Humidity;BMP_temperature;BMP_pressure;BME280_temperature;BME280_humidity;BME280_pressure;Samples;Min_cycle;Max_cycle;Signal;HPM_P1;HPM_P2
2021/03/01 00:01:00;;;;;;;15.38;7.18;;;6.90;55.80;;;;;;5031947;28;20501;-80
2021/03/01 00:03:28;;;;;;;16.45;7.60;;;6.90;55.80;;;;;;5033921;28;20067;-80
2021/03/01 00:05:54;;;;;;;14.00;6.45;;;6.90;55.90;;;;;;5035830;28;20114;-78
2021/03/01 00:08:21;;;;;;;17.40;8.00;;;6.80;56.00;;;;;;5032535;28;20209;-78
2021/03/01 00:10:48;;;;;;;16.33;6.72;;;6.60;56.60;;;;;;5015938;28;20667;-78
2021/03/01 00:13:15;;;;;;;16.73;7.18;;;6.60;56.90;;;;;;5034446;28;20144;-79
2021/03/01 00:15:42;;;;;;;14.70;6.80;;;6.40;57.10;;;;;;5063330;28;20098;-79
2021/03/01 00:18:09;;;;;;;19.77;7.72;;;6.50;57.20;;;;;;5034794;28;20048;-79
2021/03/01 00:20:36;;;;;;;16.23;8.10;;;6.30;57.50;;;;;;5032188;28;20532;-80
2021/03/01 00:23:02;;;;;;;18.15;8.05;;;6.40;58.00;;;;;;5034381;28;20053;-79
2021/03/01 00:25:29;;;;;;;16.98;8.27;;;6.10;58.10;;;;;;5034396;28;20079;-79
2021/03/01 00:27:56;;;;;;;17.77;8.27;;;6.20;58.00;;;;;;5029335;28;20073;-79
2021/03/01 00:30:23;;;;;;;18.15;8.45;;;6.10;58.20;;;;;;5032235;28;20104;-78
2021/03/01 00:32:49;;;;;;;20.33;8.68;;;6.30;58.00;;;;;;5050361;28;20118;-77
2021/03/01 00:35:16;;;;;;;19.60;8.40;;;6.50;58.10;;;;;;5038852;28;20575;-79
2021/03/01 00:37:42;;;;;;;20.35;8.82;;;6.10;58.00;;;;;;5037710;28;20560;-74
2021/03/01 00:40:09;;;;;;;15.70;7.75;;;5.90;58.50;;;;;;5037598;28;20562;-74
2021/03/01 00:42:36;;;;;;;17.02;8.23;;;5.90;58.70;;;;;;5037400;28;20086;-82
2021/03/01 00:45:05;;;;;;;18.05;8.07;;;5.90;58.80;;;;;;5051459;28;20053;-73
2021/03/01 00:47:32;;;;;;;21.02;8.35;;;5.80;59.00;;;;;;5036472;28;20065;-75
2021/03/01 00:49:58;;;;;;;17.63;7.57;;;5.90;59.50;;;;;;5039936;28;20055;-78
2021/03/01 00:52:25;;;;;;;18.20;7.78;;;5.80;59.40;;;;;;5027783;28;20481;-78
2021/03/01 00:54:51;;;;;;;21.23;8.77;;;5.80;59.30;;;;;;5021577;28;20112;-79
2021/03/01 00:57:18;;;;;;;18.48;8.15;;;5.70;59.70;;;;;;5021558;28;20128;-78
2021/03/01 00:59:44;;;;;;;22.77;8.88;;;5.70;59.70;;;;;;5023451;28;20974;-80
2021/03/01 01:02:11;;;;;;;17.27;8.80;;;5.80;59.70;;;;;;5021997;28;20088;-78
2021/03/01 01:04:38;;;;;;;17.30;7.70;;;5.80;59.70;;;;;;5025682;28;20538;-79
2021/03/01 01:07:04;;;;;;;15.75;7.50;;;5.80;59.70;;;;;;5021376;28;20482;-78
2021/03/01 01:09:31;;;;;;;17.05;7.85;;;6.00;59.60;;;;;;5021989;28;20100;-80
2021/03/01 01:11:57;;;;;;;16.35;7.90;;;5.90;59.60;;;;;;5054355;28;20551;-78
2021/03/01 01:14:23;;;;;;;19.75;8.43;;;5.70;60.20;;;;;;5029915;28;20077;-77
2021/03/01 01:16:51;;;;;;;14.55;7.40;;;5.70;60.10;;;;;;5028710;28;20132;-77
2021/03/01 01:19:17;;;;;;;17.80;8.20;;;5.80;60.00;;;;;;5021043;28;20128;-78
2021/03/01 01:21:43;;;;;;;20.80;8.23;;;5.60;60.60;;;;;;5021758;28;20141;-77
2021/03/01 01:24:10;;;;;;;17.35;8.07;;;5.90;61.00;;;;;;5024146;28;20065;-78
2021/03/01 01:26:36;;;;;;;17.08;7.53;;;5.90;60.50;;;;;;5022098;28;20155;-77
2021/03/01 01:29:04;;;;;;;17.88;8.23;;;5.60;60.60;;;;;;5023158;28;20448;-78
2021/03/01 01:31:30;;;;;;;15.68;7.15;;;5.60;60.80;;;;;;5018240;28;20081;-78
2021/03/01 01:33:57;;;;;;;20.10;7.50;;;5.80;60.10;;;;;;5020107;28;20049;-77
2021/03/01 01:36:23;;;;;;;18.20;7.75;;;5.70;60.20;;;;;;5026787;28;20128;-77
2021/03/01 01:38:52;;;;;;;16.75;7.53;;;5.60;61.50;;;;;;5026353;28;20077;-77
2021/03/01 01:41:19;;;;;;;12.85;7.03;;;5.30;61.80;;;;;;5025221;28;20453;-78
2021/03/01 01:43:45;;;;;;;15.60;7.60;;;5.60;62.10;;;;;;5027382;28;20096;-78
2021/03/01 01:46:12;;;;;;;14.55;7.25;;;5.60;60.90;;;;;;5023678;28;20162;-77
2021/03/01 01:48:39;;;;;;;13.75;7.47;;;5.50;61.10;;;;;;5025966;28;20081;-78
2021/03/01 01:51:05;;;;;;;17.15;7.40;;;5.70;60.70;;;;;;5020488;28;20090;-78
2021/03/01 01:53:32;;;;;;;15.75;7.55;;;5.40;61.00;;;;;;5032042;28;20057;-78
2021/03/01 01:55:59;;;;;;;16.20;7.43;;;5.50;61.50;;;;;;5026785;28;20140;-78
2021/03/01 01:58:26;;;;;;;16.17;8.02;;;5.30;61.70;;;;;;5018450;28;20042;-76
2021/03/01 02:00:53;;;;;;;16.25;8.10;;;5.20;62.10;;;;;;5022222;28;20073;-80
2021/03/01 02:03:36;;;;;;;16.98;8.30;;;5.10;62.70;;;;;;5023754;28;20128;-77
2021/03/01 02:06:05;;;;;;;16.02;8.23;;;5.30;63.40;;;;;;5017384;28;20532;-78
2021/03/01 02:08:57;;;;;;;16.13;8.25;;;5.10;63.20;;;;;;5025799;28;20058;-78
2021/03/01 02:11:52;;;;;;;20.75;8.52;;;5.00;63.40;;;;;;5022424;28;20159;-77
2021/03/01 02:14:48;;;;;;;19.48;9.27;;;5.10;63.50;;;;;;5026689;28;20049;-78
2021/03/01 02:17:14;;;;;;;19.38;8.35;;;5.10;63.80;;;;;;5010838;28;20465;-77
2021/03/01 02:19:41;;;;;;;14.88;8.05;;;5.00;63.70;;;;;;5020189;28;20108;-79
2021/03/01 02:22:08;;;;;;;19.02;8.38;;;5.00;63.90;;;;;;5052209;28;20488;-78
2021/03/01 02:24:40;;;;;;;19.80;8.73;;;5.20;63.30;;;;;;5022944;28;20061;-79
2021/03/01 02:27:07;;;;;;;17.50;8.18;;;5.20;63.00;;;;;;5028181;28;20057;-78
2021/03/01 02:29:35;;;;;;;21.83;8.25;;;5.10;63.30;;;;;;5016245;28;21062;-78
2021/03/01 02:32:06;;;;;;;16.50;7.70;;;5.10;63.10;;;;;;5021718;28;20115;-78
2021/03/01 02:34:37;;;;;;;17.40;8.38;;;5.10;62.80;;;;;;5022469;28;20402;-78
2021/03/01 02:37:11;;;;;;;19.08;7.70;;;5.40;63.20;;;;;;5020388;28;20049;-78
2021/03/01 02:39:42;;;;;;;16.92;8.63;;;5.20;62.60;;;;;;5024253;28;20532;-78
2021/03/01 02:42:13;;;;;;;18.17;8.27;;;5.10;63.10;;;;;;5022509;28;20041;-77
2021/03/01 02:44:41;;;;;;;16.92;7.68;;;4.80;63.80;;;;;;5025898;28;20041;-77
2021/03/01 02:47:08;;;;;;;15.02;7.72;;;5.00;63.50;;;;;;5030061;28;20096;-78
2021/03/01 02:49:36;;;;;;;14.95;7.55;;;5.20;63.60;;;;;;5035490;28;20041;-76
2021/03/01 02:52:03;;;;;;;20.02;8.68;;;5.10;63.60;;;;;;5025415;28;20081;-77
2021/03/01 02:54:30;;;;;;;18.27;8.73;;;4.80;64.20;;;;;;5021911;28;20124;-77
2021/03/01 02:56:59;;;;;;;16.23;7.93;;;4.80;64.70;;;;;;5017887;28;20456;-77
2021/03/01 02:59:27;;;;;;;18.27;8.82;;;5.10;65.20;;;;;;5027088;28;20045;-77
2021/03/01 03:01:54;;;;;;;18.10;8.18;;;4.70;65.00;;;;;;5025283;28;20112;-78
2021/03/01 03:04:22;;;;;;;19.58;8.70;;;4.90;65.20;;;;;;5018335;28;20042;-77
2021/03/01 03:06:50;;;;;;;17.38;8.00;;;4.90;64.90;;;;;;5055014;28;20414;-80
2021/03/01 03:09:17;;;;;;;18.92;7.80;;;4.90;64.80;;;;;;5049270;28;20497;-78
2021/03/01 03:11:44;;;;;;;15.60;8.45;;;4.90;65.00;;;;;;5029513;28;20081;-78
2021/03/01 03:14:16;;;;;;;17.17;8.07;;;4.70;65.10;;;;;;5015125;28;20057;-80
2021/03/01 03:16:43;;;;;;;19.25;7.88;;;4.80;65.60;;;;;;5018011;28;20076;-78
2021/03/01 03:19:09;;;;;;;16.30;8.00;;;5.20;65.00;;;;;;5019889;28;20046;-78
2021/03/01 03:21:36;;;;;;;18.00;7.82;;;4.90;64.90;;;;;;5022486;28;20095;-78
2021/03/01 03:24:06;;;;;;;18.58;8.32;;;4.80;65.10;;;;;;5016610;28;20441;-79
2021/03/01 03:26:33;;;;;;;16.95;8.13;;;4.90;65.40;;;;;;5021119;28;20045;-78
2021/03/01 03:28:59;;;;;;;17.15;7.82;;;4.90;65.70;;;;;;5022977;28;20596;-78
2021/03/01 03:31:26;;;;;;;15.18;8.13;;;4.90;65.40;;;;;;5021003;28;20052;-79
2021/03/01 03:33:53;;;;;;;18.13;8.48;;;5.20;64.60;;;;;;5023468;28;20073;-78
2021/03/01 03:36:27;;;;;;;17.10;8.50;;;5.00;64.90;;;;;;5027006;28;20083;-77
2021/03/01 03:38:59;;;;;;;18.48;8.50;;;4.70;65.50;;;;;;5019209;28;20073;-78
2021/03/01 03:41:28;;;;;;;21.13;9.52;;;4.70;67.50;;;;;;5018815;28;20058;-77
2021/03/01 03:43:55;;;;;;;18.92;8.98;;;4.70;68.10;;;;;;5027087;28;20477;-78
2021/03/01 03:46:25;;;;;;;19.52;8.35;;;4.70;67.40;;;;;;5027193;28;20378;-78
2021/03/01 03:48:53;;;;;;;17.88;8.40;;;4.80;66.80;;;;;;5025589;28;20049;-78
2021/03/01 03:51:21;;;;;;;16.40;8.27;;;4.80;66.90;;;;;;5042842;28;20103;-79
2021/03/01 03:53:50;;;;;;;19.83;8.57;;;4.70;67.10;;;;;;5023778;28;20050;-79
2021/03/01 03:56:22;;;;;;;21.88;10.20;;;4.80;67.90;;;;;;5025184;28;20103;-79
2021/03/01 03:58:54;;;;;;;24.67;10.63;;;4.60;68.90;;;;;;5024623;28;20390;-78
2021/03/01 04:01:24;;;;;;;21.55;9.02;;;4.50;69.50;;;;;;5021087;28;20073;-78
2021/03/01 04:03:54;;;;;;;21.55;8.73;;;4.50;69.60;;;;;;5023758;28;20065;-79
2021/03/01 04:06:22;;;;;;;19.23;9.50;;;4.60;69.00;;;;;;5021244;28;20076;-78
2021/03/01 04:08:51;;;;;;;17.85;8.60;;;4.80;68.40;;;;;;5022403;28;20284;-79
2021/03/01 04:11:22;;;;;;;20.80;8.98;;;4.60;68.90;;;;;;5018496;28;20439;-78
2021/03/01 04:13:54;;;;;;;21.48;9.27;;;4.50;69.70;;;;;;5014949;28;20547;-79
2021/03/01 04:16:22;;;;;;;19.25;8.68;;;4.30;70.30;;;;;;5021579;28;20127;-78
2021/03/01 04:18:52;;;;;;;25.58;9.57;;;4.40;69.50;;;;;;5048185;28;20050;-78
2021/03/01 04:21:20;;;;;;;16.63;9.20;;;4.30;69.70;;;;;;5022850;28;20099;-78
2021/03/01 04:23:50;;;;;;;21.25;9.10;;;4.80;69.90;;;;;;5024315;28;20058;-77
2021/03/01 04:26:17;;;;;;;19.33;8.68;;;4.60;69.40;;;;;;5020077;28;20503;-77
2021/03/01 04:28:45;;;;;;;19.30;8.65;;;4.50;69.50;;;;;;5022381;28;20072;-77
2021/03/01 04:31:12;;;;;;;18.20;9.13;;;4.50;70.00;;;;;;5022360;28;20077;-79
2021/03/01 04:33:40;;;;;;;18.20;9.00;;;4.60;70.00;;;;;;5022726;28;20052;-78
2021/03/01 04:36:08;;;;;;;19.73;8.73;;;4.70;70.40;;;;;;5023966;28;20060;-79
2021/03/01 04:38:36;;;;;;;15.27;7.88;;;4.60;70.30;;;;;;5022416;28;20146;-78
2021/03/01 04:41:03;;;;;;;20.20;9.15;;;4.30;70.70;;;;;;5030737;28;20402;-78
2021/03/01 04:43:32;;;;;;;19.40;8.63;;;4.10;71.30;;;;;;5022935;28;20053;-80
2021/03/01 04:45:59;;;;;;;21.10;9.15;;;4.30;71.60;;;;;;5033302;28;20046;-79
2021/03/01 04:48:27;;;;;;;19.77;9.50;;;4.30;71.30;;;;;;5021049;28;20061;-79
2021/03/01 04:50:54;;;;;;;18.63;9.48;;;4.30;71.50;;;;;;5023446;28;20061;-79
2021/03/01 04:53:21;;;;;;;20.27;9.68;;;4.20;72.30;;;;;;5014632;28;20387;-79
2021/03/01 04:55:48;;;;;;;18.02;9.18;;;4.10;72.50;;;;;;5014397;28;20053;-79
2021/03/01 04:58:20;;;;;;;17.67;8.40;;;4.20;72.70;;;;;;5054074;28;20041;-79
2021/03/01 05:00:47;;;;;;;14.80;7.82;;;4.30;72.10;;;;;;5014335;28;20069;-80
2021/03/01 05:03:13;;;;;;;21.65;8.80;;;4.20;72.80;;;;;;5021101;28;20080;-79
2021/03/01 05:05:41;;;;;;;19.05;8.52;;;4.00;73.80;;;;;;5020613;28;20470;-80
2021/03/01 05:08:13;;;;;;;20.23;9.25;;;4.00;74.00;;;;;;5028746;28;20485;-78
2021/03/01 05:10:40;;;;;;;22.38;9.45;;;3.70;74.50;;;;;;5021459;28;20054;-79
2021/03/01 05:13:07;;;;;;;19.30;8.55;;;3.70;74.70;;;;;;5024245;28;20061;-78
2021/03/01 05:15:33;;;;;;;21.27;9.68;;;3.90;74.60;;;;;;5018542;28;20050;-78
2021/03/01 05:18:00;;;;;;;22.13;8.85;;;3.80;74.70;;;;;;5026040;28;20049;-79
2021/03/01 05:20:27;;;;;;;19.08;8.82;;;3.80;75.50;;;;;;5018914;28;20129;-79
2021/03/01 05:22:53;;;;;;;20.05;8.32;;;3.80;75.20;;;;;;5055904;28;20061;-78
2021/03/01 05:25:19;;;;;;;19.33;8.25;;;3.70;76.40;;;;;;5056610;28;20052;-77
2021/03/01 05:27:46;;;;;;;22.52;9.55;;;4.20;76.70;;;;;;5021076;28;20049;-78
2021/03/01 05:30:13;;;;;;;19.33;8.20;;;4.00;76.00;;;;;;5029504;28;20046;-78
2021/03/01 05:32:39;;;;;;;18.17;8.25;;;4.20;75.60;;;;;;5024214;28;20547;-79
2021/03/01 05:35:07;;;;;;;20.13;9.07;;;4.00;75.80;;;;;;5024325;28;20057;-78
2021/03/01 05:37:34;;;;;;;22.30;9.00;;;4.30;76.50;;;;;;5026854;28;20099;-79
2021/03/01 05:40:02;;;;;;;17.67;8.27;;;4.30;76.30;;;;;;5056054;28;20409;-79
2021/03/01 05:42:33;;;;;;;20.60;7.70;;;4.00;76.60;;;;;;5025434;28;20100;-78
2021/03/01 05:45:01;;;;;;;17.23;7.22;;;4.30;76.60;;;;;;5029653;28;20100;-79
2021/03/01 05:47:28;;;;;;;20.92;8.07;;;4.10;76.40;;;;;;5024107;28;20142;-79
2021/03/01 05:49:58;;;;;;;16.80;7.88;;;4.20;76.80;;;;;;5057146;28;20054;-79
2021/03/01 05:52:27;;;;;;;19.83;8.23;;;3.60;78.20;;;;;;5023912;28;20140;-78
2021/03/01 05:54:54;;;;;;;24.23;8.68;;;3.70;79.40;;;;;;5029955;28;20119;-79
2021/03/01 05:57:22;;;;;;;19.55;8.20;;;3.70;80.10;;;;;;5022598;28;20077;-79
2021/03/01 05:59:49;;;;;;;14.57;6.97;;;3.50;79.60;;;;;;5053076;28;20081;-79
2021/03/01 06:02:17;;;;;;;20.65;7.55;;;3.60;80.00;;;;;;5025370;28;20046;-77
2021/03/01 06:04:43;;;;;;;18.58;8.15;;;3.40;80.50;;;;;;5057469;28;20056;-78
2021/03/01 06:07:10;;;;;;;15.93;8.13;;;3.60;81.00;;;;;;5021036;28;20077;-79
2021/03/01 06:09:36;;;;;;;18.73;8.30;;;3.50;80.40;;;;;;5028305;28;20049;-79
2021/03/01 06:12:03;;;;;;;15.48;7.85;;;3.40;80.90;;;;;;5026530;28;20076;-79
2021/03/01 06:14:30;;;;;;;18.50;8.13;;;3.50;80.50;;;;;;5016700;28;20057;-79
2021/03/01 06:17:10;;;;;;;19.77;8.07;;;3.80;80.50;;;;;;5025353;28;20046;-78
2021/03/01 06:19:50;;;;;;;16.30;7.68;;;3.90;79.80;;;;;;5022979;28;20050;-79
2021/03/01 06:22:31;;;;;;;18.25;7.95;;;3.80;80.00;;;;;;5019203;28;20041;-80
2021/03/01 06:25:23;;;;;;;17.33;7.80;;;3.70;79.00;;;;;;5022264;28;20045;-78
2021/03/01 06:27:55;;;;;;;19.33;7.53;;;3.80;80.20;;;;;;5025523;28;20104;-78
2021/03/01 06:30:27;;;;;;;16.10;7.53;;;3.80;80.30;;;;;;5023739;28;20050;-77
2021/03/01 06:33:11;;;;;;;20.15;8.00;;;3.80;80.70;;;;;;5040811;28;20050;-77
2021/03/01 06:35:50;;;;;;;20.52;8.27;;;3.80;80.60;;;;;;5026535;28;20052;-78
2021/03/01 06:38:23;;;;;;;21.98;8.98;;;3.80;80.30;;;;;;5025467;28;20076;-79
2021/03/01 06:41:13;;;;;;;18.80;7.53;;;3.80;81.20;;;;;;5020110;28;20060;-79
2021/03/01 06:43:41;;;;;;;17.37;7.67;;;4.30;80.80;;;;;;5029965;28;20041;-78
2021/03/01 06:46:13;;;;;;;14.23;7.30;;;4.30;80.40;;;;;;5028065;28;20103;-78
2021/03/01 06:48:41;;;;;;;13.98;7.72;;;4.20;79.60;;;;;;5021812;28;20494;-80
2021/03/01 06:51:08;;;;;;;16.48;7.70;;;4.10;80.70;;;;;;5022776;28;20100;-78
2021/03/01 06:53:36;;;;;;;17.15;8.25;;;3.90;81.90;;;;;;5027870;28;20424;-79
2021/03/01 06:56:08;;;;;;;15.10;8.15;;;3.80;82.10;;;;;;5019586;28;20060;-78
2021/03/01 06:58:46;;;;;;;16.67;8.20;;;4.10;81.70;;;;;;5054577;28;20462;-79
2021/03/01 07:01:20;;;;;;;19.05;8.73;;;4.20;80.80;;;;;;5018890;28;20084;-79
2021/03/01 07:03:51;;;;;;;21.45;8.90;;;3.90;80.50;;;;;;5028153;28;20445;-78
2021/03/01 07:06:17;;;;;;;;;;;4.10;81.10;;;;;;5025602;28;20481;-78
2021/03/01 07:08:50;;;;;;;18.08;7.90;;;4.10;80.70;;;;;;5014005;28;20325;-79
2021/03/01 07:11:25;;;;;;;20.30;8.45;;;4.20;80.10;;;;;;5020213;28;20088;-79
2021/03/01 07:13:58;;;;;;;23.27;10.10;;;4.30;79.60;;;;;;5024270;28;20501;-78
2021/03/01 07:16:25;;;;;;;22.35;10.75;;;4.20;80.40;;;;;;5020413;28;20054;-78
2021/03/01 07:18:52;;;;;;;27.35;10.60;;;4.20;81.30;;;;;;5022645;28;20442;-79
2021/03/01 07:21:19;;;;;;;30.63;10.70;;;4.20;80.80;;;;;;5024637;28;20041;-79
2021/03/01 07:23:47;;;;;;;21.83;8.98;;;4.40;81.20;;;;;;5028505;28;20482;-78
2021/03/01 07:26:16;;;;;;;20.52;9.23;;;4.20;81.20;;;;;;5026012;28;20053;-79
2021/03/01 07:28:49;;;;;;;30.15;9.95;;;4.30;81.30;;;;;;5023320;28;20057;-80
2021/03/01 07:31:16;;;;;;;22.02;9.43;;;4.50;81.30;;;;;;5020390;28;20053;-78
2021/03/01 07:33:43;;;;;;;18.70;8.32;;;4.60;80.90;;;;;;5058631;28;20073;-78
2021/03/01 07:36:11;;;;;;;20.90;9.73;;;4.50;80.10;;;;;;5025227;28;20050;-78
2021/03/01 07:38:38;;;;;;;26.17;9.50;;;4.50;80.20;;;;;;5019798;28;20046;-77
2021/03/01 07:41:05;;;;;;;26.20;9.57;;;4.60;79.90;;;;;;5021735;28;20369;-76
2021/03/01 07:43:35;;;;;;;25.73;11.00;;;4.70;79.70;;;;;;5050058;28;20092;-77
2021/03/01 07:46:04;;;;;;;28.55;9.68;;;4.80;78.90;;;;;;5019517;28;20050;-79
2021/03/01 07:48:35;;;;;;;23.90;9.82;;;5.00;78.30;;;;;;5022647;28;20049;-77
2021/03/01 07:51:02;;;;;;;26.73;9.20;;;5.20;77.60;;;;;;5013977;28;20057;-77
2021/03/01 07:53:52;;;;;;;26.83;9.95;;;5.30;77.00;;;;;;5026678;28;20049;-78
2021/03/01 07:56:25;;;;;;;22.20;9.63;;;5.20;77.00;;;;;;5026254;28;20079;-78
2021/03/01 07:58:59;;;;;;;24.08;9.82;;;6.70;76.30;;;;;;5032137;28;20057;-78
2021/03/01 08:01:26;;;;;;;28.77;9.98;;;8.20;67.70;;;;;;5018518;28;20042;-77
2021/03/01 08:03:52;;;;;;;22.15;9.45;;;9.30;63.80;;;;;;5020527;28;20091;-77
2021/03/01 08:06:20;;;;;;;26.58;9.50;;;9.40;61.60;;;;;;5020117;28;20425;-77
2021/03/01 08:08:52;;;;;;;25.42;8.75;;;9.30;60.90;;;;;;5052184;28;20045;-77
2021/03/01 08:11:47;;;;;;;20.92;8.75;;;10.50;59.00;;;;;;5022121;28;20057;-77
2021/03/01 08:14:48;;;;;;;20.30;8.63;;;11.00;55.70;;;;;;5015683;28;20046;-77
2021/03/01 08:17:30;;;;;;;21.50;9.23;;;10.40;55.50;;;;;;5022452;28;20065;-77
2021/03/01 08:20:12;;;;;;;20.90;9.32;;;9.50;58.30;;;;;;5055805;28;20412;-78
2021/03/01 08:23:12;;;;;;;20.90;8.90;;;10.10;56.70;;;;;;5020699;28;20045;-76
2021/03/01 08:25:54;;;;;;;21.30;8.45;;;10.20;56.30;;;;;;5009157;28;20116;-76
2021/03/01 08:28:23;;;;;;;18.70;8.98;;;10.40;55.10;;;;;;5019224;28;20069;-76
2021/03/01 08:30:52;;;;;;;18.58;8.77;;;10.80;55.30;;;;;;5015259;28;20212;-76
2021/03/01 08:33:22;;;;;;;22.42;8.30;;;10.90;54.10;;;;;;5015087;28;20054;-76
2021/03/01 08:35:50;;;;;;;22.27;9.85;;;10.90;54.40;;;;;;5019826;28;20058;-76
2021/03/01 08:38:37;;;;;;;24.13;9.45;;;10.60;54.20;;;;;;5017489;28;20060;-76
2021/03/01 08:41:04;;;;;;;26.00;9.73;;;10.90;54.50;;;;;;5051473;28;20477;-76
2021/03/01 08:43:36;;;;;;;20.67;8.60;;;9.70;56.40;;;;;;5020908;28;20124;-75
2021/03/01 08:46:07;;;;;;;25.65;8.95;;;10.90;54.80;;;;;;5018057;28;20046;-74
2021/03/01 08:48:51;;;;;;;17.65;8.20;;;13.00;52.10;;;;;;5026081;28;20049;-76
2021/03/01 08:51:19;;;;;;;20.48;9.00;;;14.80;48.40;;;;;;5054719;28;20098;-76
2021/03/01 08:53:45;;;;;;;15.70;7.72;;;15.40;46.10;;;;;;5017958;28;20639;-74
2021/03/01 08:56:20;;;;;;;20.02;8.35;;;16.10;44.60;;;;;;5021613;28;20081;-74
2021/03/01 08:58:47;;;;;;;22.90;9.00;;;14.60;45.60;;;;;;5023722;28;20073;-74
2021/03/01 09:01:14;;;;;;;19.92;9.73;;;14.80;46.30;;;;;;5024242;28;20050;-75
2021/03/01 09:03:42;;;;;;;16.23;8.52;;;15.00;44.90;;;;;;5026229;28;20042;-79
2021/03/01 09:06:16;;;;;;;20.42;9.75;;;13.40;46.40;;;;;;5018465;28;20050;-79
2021/03/01 09:08:47;;;;;;;18.05;9.43;;;13.40;48.10;;;;;;5024273;28;20477;-76
2021/03/01 09:11:15;;;;;;;19.35;8.90;;;13.60;48.10;;;;;;5016355;28;20543;-75
2021/03/01 09:13:43;;;;;;;28.05;9.98;;;13.10;48.40;;;;;;5018883;28;20061;-75
2021/03/01 09:16:24;;;;;;;19.80;9.77;;;13.70;47.80;;;;;;5021449;28;20442;-75
2021/03/01 09:19:03;;;;;;;17.60;9.05;;;12.50;48.50;;;;;;5024342;28;20077;-76
2021/03/01 09:21:34;;;;;;;21.83;10.38;;;11.30;51.50;;;;;;5024549;28;20057;-75
2021/03/01 09:24:01;;;;;;;21.92;10.00;;;10.30;53.70;;;;;;5022282;28;20791;-74
2021/03/01 09:26:36;;;;;;;21.13;8.85;;;9.90;56.00;;;;;;5021862;28;20625;-75
2021/03/01 09:29:14;;;;;;;17.25;8.57;;;11.50;53.50;;;;;;5021675;28;20053;-75
2021/03/01 09:31:45;;;;;;;14.07;8.02;;;13.00;51.30;;;;;;5018916;28;20547;-75
2021/03/01 09:34:16;;;;;;;16.88;9.02;;;12.90;49.80;;;;;;5021919;28;20049;-75
2021/03/01 09:36:53;;;;;;;17.88;9.38;;;13.20;49.70;;;;;;5019899;28;20080;-75
2021/03/01 09:39:23;;;;;;;18.73;9.38;;;13.20;49.40;;;;;;5024455;28;20171;-75
2021/03/01 09:41:54;;;;;;;25.20;10.65;;;13.50;48.60;;;;;;5019679;28;20100;-74
2021/03/01 09:44:40;;;;;;;15.10;8.88;;;12.90;49.90;;;;;;5019346;28;20385;-71
2021/03/01 09:47:08;;;;;;;16.60;9.02;;;14.40;48.40;;;;;;5020609;28;20045;-79
2021/03/01 09:49:37;;;;;;;28.70;9.73;;;12.70;49.90;;;;;;5027254;28;20049;-77
2021/03/01 09:52:04;;;;;;;19.65;8.88;;;11.90;51.80;;;;;;5022832;28;20476;-78
2021/03/01 09:54:31;;;;;;;16.70;8.60;;;11.60;52.40;;;;;;5025188;28;20463;-78
2021/03/01 09:57:04;;;;;;;18.88;9.68;;;12.10;51.10;;;;;;5028978;28;20056;-77
2021/03/01 09:59:33;;;;;;;18.02;9.55;;;11.30;53.30;;;;;;5024688;28;20104;-76
2021/03/01 10:02:16;;;;;;;18.08;9.27;;;11.00;54.20;;;;;;5022735;28;20060;-77
2021/03/01 10:04:45;;;;;;;16.73;9.18;;;10.80;54.80;;;;;;5022367;28;20135;-76
2021/03/01 10:07:31;;;;;;;21.23;10.30;;;11.30;54.70;;;;;;5022608;28;20091;-79
2021/03/01 10:09:58;;;;;;;17.98;9.85;;;11.70;53.60;;;;;;5022582;28;20112;-77
2021/03/01 10:12:26;;;;;;;26.38;9.27;;;11.50;53.80;;;;;;5020506;28;20504;-76
2021/03/01 10:14:58;;;;;;;28.23;9.45;;;12.20;53.70;;;;;;5020361;28;20144;-77
2021/03/01 10:17:28;;;;;;;24.80;10.70;;;12.90;51.80;;;;;;5019660;28;20053;-76
2021/03/01 10:20:03;;;;;;;;;;;11.80;53.10;;;;;;5052024;28;20053;-77
2021/03/01 10:22:31;;;;;;;21.45;9.52;;;11.50;53.80;;;;;;5023207;28;19987;-77
2021/03/01 10:24:57;;;;;;;18.73;9.35;;;11.50;53.80;;;;;;5020853;28;20077;-77
2021/03/01 10:27:36;;;;;;;19.92;8.90;;;12.00;53.00;;;;;;5021132;28;20501;-77
2021/03/01 10:30:04;;;;;;;19.95;9.55;;;12.30;52.90;;;;;;5025797;28;20065;-77
2021/03/01 10:32:31;;;;;;;17.38;9.10;;;11.90;53.60;;;;;;5021984;28;20115;-77
2021/03/01 10:34:57;;;;;;;19.27;9.15;;;11.90;53.60;;;;;;5023332;28;20049;-78
2021/03/01 10:37:26;;;;;;;17.05;8.52;;;13.40;51.10;;;;;;5021619;28;20128;-79
2021/03/01 10:39:56;;;;;;;16.90;8.63;;;14.00;49.40;;;;;;5019428;28;20469;-78
2021/03/01 10:42:24;;;;;;;19.10;9.23;;;14.20;48.80;;;;;;5023571;28;20081;-77
2021/03/01 10:45:00;;;;;;;22.15;9.15;;;14.20;48.20;;;;;;5021455;28;20133;-77
2021/03/01 10:47:32;;;;;;;18.73;8.95;;;13.70;48.80;;;;;;5019428;28;20103;-77
2021/03/01 10:50:01;;;;;;;15.82;9.40;;;13.10;49.90;;;;;;5018183;28;20111;-78
2021/03/01 10:52:28;;;;;;;17.92;9.27;;;13.10;50.10;;;;;;5021531;28;20103;-76
2021/03/01 10:54:56;;;;;;;20.58;9.32;;;13.00;50.60;;;;;;5020201;28;20100;-81
2021/03/01 10:57:25;;;;;;;18.73;8.93;;;13.10;50.40;;;;;;5022260;28;20051;-76
2021/03/01 10:59:54;;;;;;;17.95;9.30;;;14.80;47.90;;;;;;5019233;28;20412;-72
2021/03/01 11:02:21;;;;;;;18.52;9.68;;;14.60;48.30;;;;;;5019027;28;20057;-72
2021/03/01 11:04:49;;;;;;;22.77;10.93;;;15.00;47.40;;;;;;5021023;28;20417;-73
2021/03/01 11:07:16;;;;;;;16.77;9.00;;;15.90;46.00;;;;;;5020450;28;20049;-71
2021/03/01 11:09:42;;;;;;;21.73;11.52;;;15.60;45.20;;;;;;5017208;28;21429;-73
2021/03/01 11:12:09;;;;;;;18.90;9.13;;;16.00;45.30;;;;;;5016155;28;20132;-73
2021/03/01 11:14:35;;;;;;;20.95;8.90;;;15.90;44.60;;;;;;5017703;28;20064;-71
2021/03/01 11:17:06;;;;;;;18.85;9.65;;;15.70;45.80;;;;;;5021549;28;20081;-72
2021/03/01 11:19:33;;;;;;;20.15;9.88;;;15.20;46.00;;;;;;5015910;28;20175;-73
2021/03/01 11:21:59;;;;;;;18.25;10.02;;;14.60;47.40;;;;;;5017907;28;20405;-73
2021/03/01 11:24:25;;;;;;;25.40;10.93;;;14.10;48.40;;;;;;5051868;28;20144;-72
2021/03/01 11:26:53;;;;;;;20.70;10.48;;;13.50;49.70;;;;;;5020421;28;20640;-78
2021/03/01 11:29:20;;;;;;;21.23;9.95;;;13.20;51.20;;;;;;5020801;28;20058;-76
2021/03/01 11:31:47;;;;;;;22.77;10.13;;;13.90;50.40;;;;;;5019794;28;20485;-76
2021/03/01 11:34:17;;;;;;;19.80;10.20;;;14.70;48.90;;;;;;5019474;28;20065;-77
2021/03/01 11:36:43;;;;;;;20.85;10.02;;;14.70;47.70;;;;;;5019090;28;20665;-75
2021/03/01 11:39:13;;;;;;;21.80;10.10;;;14.70;48.50;;;;;;5021066;28;20118;-76
2021/03/01 11:41:39;;;;;;;19.52;10.13;;;15.50;47.50;;;;;;5022253;28;20108;-77
2021/03/01 11:44:07;;;;;;;20.20;10.82;;;16.20;46.20;;;;;;5022074;28;20139;-76
2021/03/01 11:46:34;;;;;;;25.08;9.90;;;18.00;44.00;;;;;;5018654;28;20054;-76
2021/03/01 11:49:01;;;;;;;21.52;11.02;;;17.80;42.20;;;;;;5017637;28;20049;-77
2021/03/01 11:51:28;;;;;;;24.98;10.15;;;17.10;43.20;;;;;;5022248;28;20061;-76
2021/03/01 11:53:54;;;;;;;22.10;10.25;;;15.70;46.20;;;;;;5021877;28;20136;-76
2021/03/01 11:56:21;;;;;;;20.17;9.77;;;16.20;45.40;;;;;;5018987;28;20108;-77
2021/03/01 11:58:49;;;;;;;21.88;10.88;;;16.70;43.70;;;;;;5023387;28;20049;-76
2021/03/01 12:01:15;;;;;;;19.75;10.23;;;15.50;46.00;;;;;;5022088;28;20061;-76
2021/03/01 12:03:42;;;;;;;19.02;10.25;;;15.00;46.70;;;;;;5018179;28;20054;-77
2021/03/01 12:06:10;;;;;;;20.65;10.10;;;14.70;47.40;;;;;;5021348;28;20404;-78
2021/03/01 12:08:37;;;;;;;23.42;10.38;;;14.80;47.40;;;;;;5018374;28;20075;-77
2021/03/01 12:11:03;;;;;;;21.25;10.68;;;15.00;46.90;;;;;;5021727;28;20743;-77
2021/03/01 12:13:30;;;;;;;22.35;10.27;;;15.10;47.20;;;;;;5034810;28;20041;-77
2021/03/01 12:15:57;;;;;;;24.15;9.77;;;14.50;47.60;;;;;;5035114;28;20136;-79
2021/03/01 12:18:23;;;;;;;19.65;10.30;;;14.70;47.40;;;;;;5034522;28;20064;-77
2021/03/01 12:20:50;;;;;;;17.27;9.70;;;15.10;47.10;;;;;;5036482;28;20053;-80
2021/03/01 12:23:16;;;;;;;19.30;10.75;;;15.70;45.60;;;;;;5034441;28;20110;-77
2021/03/01 12:25:43;;;;;;;23.05;10.60;;;15.90;45.40;;;;;;5033235;28;20099;-78
2021/03/01 12:28:09;;;;;;;20.00;10.60;;;15.50;45.70;;;;;;5036523;28;20118;-77
2021/03/01 12:30:36;;;;;;;21.30;11.38;;;15.80;45.80;;;;;;5037396;28;20079;-77
2021/03/01 12:33:03;;;;;;;19.50;9.25;;;16.40;45.00;;;;;;5039403;28;21398;-79
2021/03/01 12:35:31;;;;;;;19.15;10.57;;;16.00;44.70;;;;;;5038073;28;20049;-78
2021/03/01 12:37:59;;;;;;;18.27;9.80;;;15.30;46.10;;;;;;5035872;28;20060;-77
2021/03/01 12:40:25;;;;;;;18.60;10.05;;;15.40;45.70;;;;;;5032778;28;20073;-78
2021/03/01 12:42:52;;;;;;;17.17;9.75;;;15.90;45.20;;;;;;5038794;28;20052;-77
2021/03/01 12:45:19;;;;;;;16.38;9.55;;;16.10;44.50;;;;;;5036570;28;20045;-76
2021/03/01 12:47:46;;;;;;;20.70;10.18;;;15.90;45.30;;;;;;5036120;28;20447;-77
2021/03/01 12:50:14;;;;;;;20.73;10.10;;;16.20;45.00;;;;;;5036832;28;20064;-75
2021/03/01 12:52:41;;;;;;;19.55;10.25;;;16.40;44.80;;;;;;5039869;28;20060;-75
2021/03/01 12:55:07;;;;;;;27.48;11.05;;;16.80;44.30;;;;;;5067927;28;20060;-75